createdAt,value
2022-10-05T00:01:28.895Z,92.53
2022-10-05T00:04:08.493Z,133.15
2022-10-05T00:06:37.728Z,110.05
2022-10-05T00:09:19.380Z,93.57
2022-10-05T00:11:49.818Z,92.93
2022-10-05T00:14:29.949Z,83.85
2022-10-05T00:16:59.592Z,106.63
2022-10-05T00:19:40.947Z,78.97
2022-10-05T00:22:30.176Z,93.68
2022-10-05T00:25:04.718Z,94.05
2022-10-05T00:27:37.713Z,95.20
2022-10-05T00:30:16.323Z,86.07
2022-10-05T00:32:46.592Z,82.93
2022-10-05T00:35:18.090Z,80.07
2022-10-05T00:37:52.245Z,85.43
2022-10-05T00:40:58.769Z,84.10
2022-10-05T00:44:21.617Z,86.60
2022-10-05T00:46:59.612Z,95.60
2022-10-05T00:49:55.906Z,83.60
2022-10-05T00:52:34.233Z,105.32
2022-10-05T00:55:47.682Z,115.50
2022-10-05T00:58:22.849Z,128.57
2022-10-05T01:01:29.516Z,119.63
2022-10-05T01:04:28.992Z,131.75
2022-10-05T01:07:35.178Z,112.85
2022-10-05T01:10:40.221Z,116.85
2022-10-05T01:13:34.245Z,126.45
2022-10-05T01:16:10.897Z,122.82
2022-10-05T01:19:03.162Z,126.40
2022-10-05T01:21:44.951Z,115.78
2022-10-05T01:24:34.875Z,107.28
2022-10-05T01:27:04.285Z,126.85
2022-10-05T01:29:42.731Z,122.20
2022-10-05T01:32:43.772Z,116.53
2022-10-05T01:35:27.865Z,131.82
2022-10-05T01:38:00.839Z,113.93
2022-10-05T01:40:46.177Z,104.93
2022-10-05T01:43:31.299Z,113.45
2022-10-05T01:46:13.203Z,122.30
2022-10-05T01:49:14.297Z,154.65
2022-10-05T01:52:01.702Z,167.55
2022-10-05T01:54:56.867Z,169.85
2022-10-05T01:57:45.492Z,167.52
2022-10-05T02:00:22.277Z,162.20
2022-10-05T02:03:03.132Z,161.88
2022-10-05T02:05:42.686Z,127.90
2022-10-05T02:08:34.003Z,146.70
2022-10-05T02:11:10.230Z,173.88
2022-10-05T02:13:54.577Z,178.80
2022-10-05T02:16:45.597Z,169.25
2022-10-05T02:19:36.889Z,166.10
2022-10-05T02:22:13.331Z,161.98
2022-10-05T02:24:52.510Z,183.02
2022-10-05T02:27:28.855Z,151.35
2022-10-05T02:30:04.102Z,172.20
2022-10-05T02:32:50.977Z,161.90
2022-10-05T02:35:23.045Z,171.52
2022-10-05T02:38:23.156Z,170.40
2022-10-05T02:41:05.454Z,160.80
2022-10-05T02:44:05.272Z,189.03
2022-10-05T02:46:59.044Z,215.90
2022-10-05T02:49:55.580Z,223.00
2022-10-05T02:52:46.134Z,489.35
2022-10-05T02:55:32.201Z,316.67
2022-10-05T02:58:24.049Z,331.80
2022-10-05T03:01:08.558Z,236.68
2022-10-05T03:03:57.405Z,229.27
2022-10-05T03:06:36.947Z,210.95
2022-10-05T03:09:09.509Z,207.75
2022-10-05T03:12:07.243Z,222.95
2022-10-05T03:14:48.849Z,223.88
2022-10-05T03:17:23.740Z,221.85
2022-10-05T03:20:24.096Z,241.05
2022-10-05T03:23:02.814Z,245.00
2022-10-05T03:25:57.563Z,234.23
2022-10-05T03:28:46.421Z,237.02
2022-10-05T03:31:55.384Z,241.25
2022-10-05T03:34:38.528Z,240.20
2022-10-05T03:40:04.835Z,249.13
2022-10-05T03:42:43.191Z,252.43
2022-10-05T03:45:30.859Z,250.48
2022-10-05T03:48:03.206Z,271.55
2022-10-05T03:50:46.127Z,256.83
2022-10-05T03:53:29.021Z,274.13
2022-10-05T03:56:06.157Z,254.25
2022-10-05T03:58:45.529Z,276.45
2022-10-05T04:01:21.053Z,255.77
2022-10-05T04:04:00.906Z,252.82
2022-10-05T04:06:42.075Z,273.95
2022-10-05T04:09:20.710Z,279.05
2022-10-05T04:11:52.408Z,263.90
2022-10-05T04:14:47.350Z,303.70
2022-10-05T04:17:23.477Z,300.00
2022-10-05T04:20:07.289Z,304.73
2022-10-05T04:22:42.175Z,333.52
2022-10-05T04:25:18.565Z,322.50
2022-10-05T04:28:04.913Z,283.35
2022-10-05T04:30:39.612Z,226.63
2022-10-05T04:33:14.864Z,238.82
2022-10-05T04:36:23.527Z,205.85
2022-10-05T04:39:25.507Z,225.23
2022-10-05T04:42:08.437Z,215.20
2022-10-05T04:45:26.055Z,178.80
2022-10-05T04:48:23.760Z,162.63
2022-10-05T04:50:57.346Z,142.27
2022-10-05T04:53:37.331Z,140.32
2022-10-05T04:56:20.807Z,156.60
2022-10-05T04:59:30.755Z,175.90
2022-10-05T05:02:18.390Z,139.65
2022-10-05T05:05:16.912Z,117.57
2022-10-05T05:08:03.450Z,115.65
2022-10-05T05:10:55.081Z,111.47
2022-10-05T05:13:45.316Z,117.03
2022-10-05T05:16:37.209Z,82.07
2022-10-05T05:19:24.243Z,89.05
2022-10-05T05:22:09.083Z,94.05
2022-10-05T05:24:58.406Z,60.72
2022-10-05T05:27:50.618Z,69.47
2022-10-05T05:30:52.407Z,68.10
2022-10-05T05:33:28.390Z,72.68
2022-10-05T05:36:36.168Z,77.85
2022-10-05T05:39:06.025Z,79.95
2022-10-05T05:42:00.101Z,80.40
2022-10-05T05:44:42.721Z,99.93
2022-10-05T05:47:22.130Z,105.38
2022-10-05T05:50:19.715Z,95.57
2022-10-05T05:53:25.186Z,90.15
2022-10-05T05:56:12.738Z,61.95
2022-10-05T05:58:48.642Z,84.05
2022-10-05T06:01:34.179Z,62.20
2022-10-05T06:04:18.465Z,71.78
2022-10-05T06:06:52.524Z,77.82
2022-10-05T06:09:34.273Z,97.22
2022-10-05T06:12:35.954Z,63.35
2022-10-05T06:15:13.198Z,74.72
2022-10-05T06:17:51.185Z,54.15
2022-10-05T06:20:30.744Z,63.60
2022-10-05T06:23:04.862Z,65.38
2022-10-05T06:25:51.126Z,48.30
2022-10-05T06:28:20.795Z,48.38
2022-10-05T06:31:22.539Z,52.53
2022-10-05T06:34:05.131Z,68.97
2022-10-05T06:36:54.398Z,50.90
2022-10-05T06:39:45.140Z,50.17
2022-10-05T06:42:39.087Z,48.85
2022-10-05T06:46:00.236Z,41.83
2022-10-05T06:48:59.728Z,57.53
2022-10-05T06:51:53.090Z,82.80
2022-10-05T06:55:09.534Z,81.80
2022-10-05T06:58:08.879Z,47.03
2022-10-05T07:00:58.724Z,49.85
2022-10-05T07:03:42.890Z,80.47
2022-10-05T07:06:21.870Z,67.93
2022-10-05T07:09:19.211Z,58.40
2022-10-05T07:12:00.876Z,73.28
2022-10-05T07:15:02.968Z,83.30
2022-10-05T07:17:46.682Z,68.15
2022-10-05T07:20:26.805Z,56.83
2022-10-05T07:23:08.388Z,64.15
2022-10-05T07:25:47.743Z,50.63
2022-10-05T07:28:26.651Z,102.80
2022-10-05T07:31:23.157Z,55.00
2022-10-05T07:34:23.448Z,50.95
2022-10-05T07:37:14.384Z,45.53
2022-10-05T07:40:06.784Z,43.00
2022-10-05T07:42:59.671Z,43.58
2022-10-05T07:48:23.901Z,48.75
2022-10-05T07:51:19.559Z,41.13
2022-10-05T07:54:09.093Z,41.08
2022-10-05T07:56:45.278Z,46.20
2022-10-05T07:59:47.028Z,41.75
2022-10-05T08:02:45.576Z,59.53
2022-10-05T08:05:37.069Z,54.05
2022-10-05T08:08:34.035Z,68.55
2022-10-05T08:11:18.667Z,47.38
2022-10-05T08:13:51.062Z,59.53
2022-10-05T08:19:07.934Z,37.45
2022-10-05T08:21:42.941Z,46.10
2022-10-05T08:24:45.885Z,59.88
2022-10-05T08:27:24.860Z,35.38
2022-10-05T08:30:12.021Z,51.42
2022-10-05T08:33:04.073Z,41.40
2022-10-05T08:35:45.017Z,35.78
2022-10-05T08:38:26.390Z,66.32
2022-10-05T08:41:37.763Z,48.00
2022-10-05T08:44:43.036Z,43.25
2022-10-05T08:47:22.920Z,47.40
2022-10-05T08:50:19.323Z,45.00
2022-10-05T08:53:32.056Z,51.28
2022-10-05T08:59:17.762Z,50.38
2022-10-05T09:02:11.618Z,43.88
2022-10-05T09:04:49.912Z,53.95
2022-10-05T09:07:23.418Z,149.38
2022-10-05T09:10:20.332Z,76.15
2022-10-05T09:13:12.619Z,58.38
2022-10-05T09:16:06.100Z,58.75
2022-10-05T09:18:53.804Z,90.05
2022-10-05T09:21:43.677Z,67.38
2022-10-05T09:24:28.005Z,170.30
2022-10-05T09:27:17.883Z,59.03
2022-10-05T09:30:14.363Z,44.40
2022-10-05T09:33:10.615Z,56.53
2022-10-05T09:36:01.506Z,153.73
2022-10-05T09:39:06.945Z,101.13
2022-10-05T09:42:04.888Z,30.90
2022-10-05T09:44:43.296Z,35.35
2022-10-05T09:47:46.275Z,95.65
2022-10-05T09:50:42.035Z,49.67
2022-10-05T09:53:41.532Z,39.47
2022-10-05T09:56:20.184Z,28.33
2022-10-05T09:59:04.837Z,43.00
2022-10-05T10:01:55.628Z,44.88
2022-10-05T10:05:15.673Z,30.30
2022-10-05T10:08:05.826Z,100.90
2022-10-05T10:10:59.317Z,40.63
2022-10-05T10:14:01.294Z,52.67
2022-10-05T10:16:45.122Z,43.38
2022-10-05T10:19:49.168Z,34.55
2022-10-05T10:22:28.588Z,84.43
2022-10-05T10:25:25.518Z,25.45
2022-10-05T10:28:14.611Z,29.35
2022-10-05T10:31:02.161Z,34.40
2022-10-05T10:33:58.352Z,33.72
2022-10-05T10:37:07.394Z,31.40
2022-10-05T10:40:00.421Z,26.33
2022-10-05T10:42:44.481Z,42.50
2022-10-05T10:45:50.937Z,41.30
2022-10-05T10:48:32.644Z,174.80
2022-10-05T10:51:10.592Z,45.70
2022-10-05T10:54:23.843Z,32.13
2022-10-05T10:57:16.418Z,39.05
2022-10-05T11:00:07.737Z,47.53
2022-10-05T11:02:51.399Z,38.75
2022-10-05T11:05:39.518Z,36.10
2022-10-05T11:08:26.776Z,39.15
2022-10-05T11:11:24.186Z,35.33
2022-10-05T11:14:12.838Z,89.28
2022-10-05T11:17:00.238Z,52.28
2022-10-05T11:20:03.747Z,33.28
2022-10-05T11:23:19.582Z,51.92
2022-10-05T11:26:06.623Z,57.67
2022-10-05T11:28:38.719Z,43.50
2022-10-05T11:31:27.241Z,49.30
2022-10-05T11:33:56.435Z,64.57
2022-10-05T11:37:02.098Z,50.67
2022-10-05T11:39:40.074Z,80.13
2022-10-05T11:42:28.730Z,64.88
2022-10-05T11:45:27.115Z,64.85
2022-10-05T11:48:02.278Z,44.30
2022-10-05T11:50:59.393Z,81.90
2022-10-05T11:53:42.927Z,71.75
2022-10-05T11:59:06.194Z,86.65
2022-10-05T12:01:51.299Z,89.63
2022-10-05T12:05:09.125Z,139.98
2022-10-05T12:07:56.125Z,109.35
2022-10-05T12:10:44.686Z,147.23
2022-10-05T12:13:45.516Z,123.95
2022-10-05T12:16:33.815Z,110.38
2022-10-05T12:19:29.362Z,118.53
2022-10-05T12:22:18.986Z,119.38
2022-10-05T12:25:06.440Z,113.28
2022-10-05T12:27:47.207Z,124.65
2022-10-05T12:30:33.972Z,92.28
2022-10-05T12:33:25.093Z,96.95
2022-10-05T12:36:07.095Z,127.85
2022-10-05T12:38:39.764Z,215.45
2022-10-05T12:41:30.461Z,87.93
2022-10-05T12:44:14.475Z,86.85
2022-10-05T12:47:07.467Z,117.80
2022-10-05T12:49:57.234Z,72.25
2022-10-05T12:52:45.731Z,131.00
2022-10-05T12:55:31.918Z,103.35
2022-10-05T12:58:14.212Z,71.60
2022-10-05T13:00:58.291Z,85.32
2022-10-05T13:03:39.113Z,96.60
2022-10-05T13:06:32.719Z,104.13
2022-10-05T13:09:14.633Z,106.82
2022-10-05T13:11:52.995Z,156.85
2022-10-05T13:15:05.644Z,122.15
2022-10-05T13:17:37.733Z,159.40
2022-10-05T13:20:29.132Z,208.20
2022-10-05T13:23:09.119Z,172.70
2022-10-05T13:25:47.173Z,233.73
2022-10-05T13:28:27.454Z,172.60
2022-10-05T13:31:08.514Z,134.20
2022-10-05T13:34:09.920Z,147.85
2022-10-05T13:36:45.807Z,142.77
2022-10-05T13:39:40.479Z,156.63
2022-10-05T13:42:27.991Z,157.73
2022-10-05T13:45:22.671Z,150.98
2022-10-05T13:48:04.838Z,145.35
2022-10-05T13:50:39.833Z,157.35
2022-10-05T13:53:50.391Z,161.07
2022-10-05T13:56:50.180Z,194.68
2022-10-05T13:59:34.413Z,150.57
2022-10-05T14:02:11.247Z,104.57
2022-10-05T14:04:48.110Z,113.60
2022-10-05T14:07:35.377Z,208.82
2022-10-05T14:10:13.452Z,160.95
2022-10-05T14:12:46.802Z,157.05
2022-10-05T14:15:34.145Z,191.05
2022-10-05T14:18:29.636Z,204.80
2022-10-05T14:21:17.414Z,231.20
2022-10-05T14:23:47.106Z,183.00
2022-10-05T14:26:34.447Z,155.13
2022-10-05T14:29:05.425Z,124.20
2022-10-05T14:31:38.814Z,111.63
2022-10-05T14:34:27.261Z,98.80
2022-10-05T14:37:03.205Z,107.00
2022-10-05T14:39:36.469Z,106.35
2022-10-05T14:42:28.139Z,113.60
2022-10-05T14:45:13.118Z,124.45
2022-10-05T14:47:54.796Z,108.03
2022-10-05T14:50:30.808Z,102.80
2022-10-05T14:53:26.251Z,103.60
2022-10-05T14:55:58.404Z,112.63
2022-10-05T14:58:40.596Z,102.88
2022-10-05T15:01:15.707Z,105.40
2022-10-05T15:04:03.078Z,104.53
2022-10-05T15:06:40.237Z,111.78
2022-10-05T15:09:24.029Z,112.43
2022-10-05T15:11:57.712Z,94.28
2022-10-05T15:14:48.632Z,92.72
2022-10-05T15:17:45.548Z,85.47
2022-10-05T15:20:28.364Z,94.30
2022-10-05T15:23:00.416Z,98.13
2022-10-05T15:25:50.033Z,109.50
2022-10-05T15:28:25.238Z,102.78
2022-10-05T15:31:03.314Z,97.55
2022-10-05T15:33:39.634Z,117.35
2022-10-05T15:36:27.484Z,104.18
2022-10-05T15:39:27.992Z,104.57
2022-10-05T15:42:49.418Z,122.72
2022-10-05T15:45:38.667Z,124.10
2022-10-05T15:48:40.463Z,145.07
2022-10-05T15:51:31.106Z,119.60
2022-10-05T15:54:27.563Z,111.05
2022-10-05T15:57:26.489Z,125.75
2022-10-05T16:00:15.993Z,125.10
2022-10-05T16:03:24.258Z,117.57
2022-10-05T16:06:21.639Z,104.13
2022-10-05T16:08:56.577Z,140.02
2022-10-05T16:11:44.188Z,128.98
2022-10-05T16:14:13.725Z,107.60
2022-10-05T16:17:18.867Z,88.13
2022-10-05T16:20:10.704Z,88.18
2022-10-05T16:23:11.394Z,92.75
2022-10-05T16:26:05.020Z,85.60
2022-10-05T16:28:54.420Z,75.57
2022-10-05T16:31:38.393Z,77.75
2022-10-05T16:34:32.178Z,83.50
2022-10-05T16:37:16.151Z,92.57
2022-10-05T16:40:01.128Z,66.65
2022-10-05T16:42:57.766Z,72.50
2022-10-05T16:45:59.401Z,90.82
2022-10-05T16:48:53.136Z,83.20
2022-10-05T16:51:28.278Z,92.35
2022-10-05T16:54:21.800Z,95.97
2022-10-05T16:57:04.419Z,79.20
2022-10-05T17:00:04.733Z,68.28
2022-10-05T17:02:47.205Z,70.95
2022-10-05T17:05:42.244Z,111.55
2022-10-05T17:08:32.998Z,78.80
2022-10-05T17:11:22.174Z,78.75
2022-10-05T17:14:17.099Z,67.25
2022-10-05T17:16:52.263Z,72.65
2022-10-05T17:19:36.210Z,74.07
2022-10-05T17:22:22.609Z,67.65
2022-10-05T17:25:00.615Z,63.97
2022-10-05T17:27:33.673Z,67.45
2022-10-05T17:30:29.601Z,63.92
2022-10-05T17:33:15.185Z,60.72
2022-10-05T17:35:55.394Z,57.78
2022-10-05T17:38:45.105Z,74.82
2022-10-05T17:41:17.201Z,65.45
2022-10-05T17:44:04.927Z,69.05
2022-10-05T17:46:48.537Z,54.75
2022-10-05T17:49:35.827Z,59.33
2022-10-05T17:52:40.700Z,50.45
2022-10-05T17:55:39.461Z,50.45
2022-10-05T17:58:29.883Z,59.60
2022-10-05T18:00:58.998Z,56.58
2022-10-05T18:03:51.123Z,59.05
2022-10-05T18:06:34.196Z,49.90
2022-10-05T18:09:34.967Z,49.70
2022-10-05T18:12:19.098Z,56.50
2022-10-05T18:15:09.094Z,104.05
2022-10-05T18:17:51.949Z,251.02
2022-10-05T18:20:29.785Z,149.23
2022-10-05T18:23:07.103Z,85.15
2022-10-05T18:26:06.142Z,68.53
2022-10-05T18:28:55.736Z,87.47
2022-10-05T18:31:26.849Z,66.65
2022-10-05T18:33:55.911Z,69.13
2022-10-05T18:36:47.973Z,59.58
2022-10-05T18:39:36.388Z,76.13
2022-10-05T18:42:34.082Z,51.53
2022-10-05T18:45:23.071Z,53.67
2022-10-05T18:48:18.139Z,58.53
2022-10-05T18:51:02.336Z,55.35
2022-10-05T18:53:45.387Z,61.45
2022-10-05T18:56:22.331Z,77.00
2022-10-05T18:58:56.915Z,59.13
2022-10-05T19:01:51.555Z,66.22
2022-10-05T19:04:24.035Z,63.25
2022-10-05T19:06:58.085Z,65.60
2022-10-05T19:09:51.390Z,77.65
2022-10-05T19:12:41.772Z,60.65
2022-10-05T19:15:24.426Z,56.60
2022-10-05T19:18:19.514Z,59.28
2022-10-05T19:21:19.078Z,58.28
2022-10-05T19:24:06.057Z,64.53
2022-10-05T19:27:07.793Z,62.40
2022-10-05T19:30:26.192Z,64.72
2022-10-05T19:33:16.772Z,59.38
2022-10-05T19:35:59.504Z,59.95
2022-10-05T19:39:06.614Z,65.68
2022-10-05T19:41:45.738Z,71.68
2022-10-05T19:44:18.957Z,57.13
2022-10-05T19:47:02.688Z,66.10
2022-10-05T19:49:59.862Z,50.28
2022-10-05T19:52:41.100Z,64.13
2022-10-05T19:55:15.908Z,67.25
2022-10-05T19:57:50.086Z,61.50
2022-10-05T20:00:27.961Z,53.22
2022-10-05T20:03:24.604Z,68.90
2022-10-05T20:05:55.055Z,60.10
2022-10-05T20:08:27.678Z,51.92
2022-10-05T20:11:11.069Z,55.63
2022-10-05T20:13:46.780Z,55.08
2022-10-05T20:16:37.061Z,54.38
2022-10-05T20:19:45.260Z,51.30
2022-10-05T20:22:36.923Z,48.30
2022-10-05T20:25:19.881Z,67.25
2022-10-05T20:27:56.482Z,55.67
2022-10-05T20:30:32.295Z,58.53
2022-10-05T20:33:11.397Z,50.22
2022-10-05T20:35:40.726Z,63.92
2022-10-05T20:38:09.670Z,54.10
2022-10-05T20:40:40.027Z,62.63
2022-10-05T20:43:09.185Z,55.55
2022-10-05T20:45:44.251Z,56.95
2022-10-05T20:48:15.302Z,49.90
2022-10-05T20:50:44.737Z,60.53
2022-10-05T20:53:14.171Z,55.08
2022-10-05T20:55:44.160Z,46.22
2022-10-05T20:58:13.124Z,45.70
2022-10-05T21:01:00.568Z,47.63
2022-10-05T21:03:29.793Z,45.40
2022-10-05T21:05:58.640Z,47.33
2022-10-05T21:08:28.261Z,42.63
2022-10-05T21:10:57.425Z,48.13
2022-10-05T21:13:27.630Z,42.58
2022-10-05T21:15:57.479Z,42.72
2022-10-05T21:18:26.898Z,46.20
2022-10-05T21:20:59.952Z,42.22
2022-10-05T21:23:33.608Z,46.80
2022-10-05T21:26:03.347Z,50.38
2022-10-05T21:28:34.771Z,52.92
2022-10-05T21:31:04.088Z,39.15
2022-10-05T21:33:33.602Z,59.40
2022-10-05T21:36:03.015Z,44.80
2022-10-05T21:38:31.993Z,45.58
2022-10-05T21:41:01.328Z,46.38
2022-10-05T21:43:30.481Z,47.42
2022-10-05T21:46:00.158Z,52.90
2022-10-05T21:48:31.357Z,55.40
2022-10-05T21:51:02.239Z,57.03
2022-10-05T21:53:40.048Z,58.50
2022-10-05T21:56:15.347Z,51.38
2022-10-05T21:58:46.818Z,42.60
2022-10-05T22:01:20.144Z,46.40
2022-10-05T22:03:51.586Z,50.22
2022-10-05T22:06:20.632Z,50.28
2022-10-05T22:08:50.093Z,51.85
2022-10-05T22:11:19.835Z,62.10
2022-10-05T22:13:51.412Z,58.38
2022-10-05T22:16:22.833Z,41.22
2022-10-05T22:18:54.602Z,50.90
2022-10-05T22:21:23.723Z,48.83
2022-10-05T22:23:52.683Z,36.72
2022-10-05T22:26:24.480Z,64.03
2022-10-05T22:28:57.359Z,124.35
2022-10-05T22:31:26.860Z,137.93
2022-10-05T22:33:55.876Z,97.75
2022-10-05T22:36:25.207Z,103.80
2022-10-05T22:38:54.219Z,75.10
2022-10-05T22:41:23.318Z,59.83
2022-10-05T22:43:53.023Z,56.45
2022-10-05T22:46:23.529Z,55.58
2022-10-05T22:48:52.765Z,41.33
2022-10-05T22:51:21.780Z,60.38
2022-10-05T22:53:51.166Z,48.08
2022-10-05T22:56:20.323Z,41.63
2022-10-05T22:58:49.537Z,47.75
2022-10-05T23:01:20.757Z,41.42
2022-10-05T23:03:49.842Z,49.90
2022-10-05T23:06:21.382Z,46.22
2022-10-05T23:08:50.640Z,47.15
2022-10-05T23:11:28.056Z,42.65
2022-10-05T23:13:57.978Z,47.10
2022-10-05T23:16:29.189Z,39.67
2022-10-05T23:18:59.418Z,37.30
2022-10-05T23:21:31.913Z,39.35
2022-10-05T23:24:01.462Z,47.58
2022-10-05T23:26:31.739Z,43.05
2022-10-05T23:29:01.134Z,49.92
2022-10-05T23:31:34.580Z,49.90
2022-10-05T23:34:03.774Z,48.10
2022-10-05T23:36:33.350Z,57.83
2022-10-05T23:39:02.684Z,44.17
2022-10-05T23:41:31.691Z,59.85
2022-10-05T23:44:00.829Z,59.70
2022-10-05T23:46:29.803Z,64.65
2022-10-05T23:48:58.976Z,61.38
2022-10-05T23:51:27.884Z,51.90
2022-10-05T23:53:57.151Z,51.17
2022-10-05T23:56:26.381Z,57.45
2022-10-05T23:58:55.597Z,50.22
